createdAt,value
2017-10-07T00:02:09.152Z,3.00
2017-10-07T00:04:37.898Z,2.30
2017-10-07T00:07:05.664Z,3.17
2017-10-07T00:09:33.432Z,2.40
2017-10-07T00:12:01.305Z,2.67
2017-10-07T00:14:29.108Z,2.33
2017-10-07T00:16:56.822Z,2.33
2017-10-07T00:19:24.609Z,2.90
2017-10-07T00:21:52.388Z,2.70
2017-10-07T00:24:20.941Z,2.93
2017-10-07T00:26:49.268Z,3.07
2017-10-07T00:29:16.989Z,2.57
2017-10-07T00:31:44.825Z,2.60
2017-10-07T00:34:12.635Z,2.43
2017-10-07T00:36:40.351Z,2.63
2017-10-07T00:39:08.138Z,2.57
2017-10-07T00:41:36.754Z,2.60
2017-10-07T00:44:04.488Z,2.07
2017-10-07T00:46:32.236Z,2.43
2017-10-07T00:48:59.954Z,2.40
2017-10-07T00:51:27.763Z,2.23
2017-10-07T00:53:55.583Z,2.50
2017-10-07T00:56:23.488Z,2.77
2017-10-07T00:58:51.281Z,2.07
2017-10-07T01:01:19.855Z,2.10
2017-10-07T01:03:47.702Z,2.03
2017-10-07T01:06:15.472Z,2.10
2017-10-07T01:08:43.219Z,1.63
2017-10-07T01:11:10.988Z,1.73
2017-10-07T01:13:38.700Z,2.30
2017-10-07T01:16:06.450Z,1.50
2017-10-07T01:18:34.248Z,1.73
2017-10-07T01:21:02.041Z,1.60
2017-10-07T01:23:29.790Z,1.93
2017-10-07T01:25:57.669Z,1.70
2017-10-07T01:28:25.403Z,1.70
2017-10-07T01:30:53.923Z,1.70
2017-10-07T01:33:21.854Z,2.17
2017-10-07T01:35:50.456Z,1.33
2017-10-07T01:38:18.384Z,1.77
2017-10-07T01:40:46.108Z,1.80
2017-10-07T01:43:13.874Z,1.93
2017-10-07T01:45:41.787Z,2.07
2017-10-07T01:48:09.758Z,2.00
2017-10-07T01:50:37.531Z,2.13
2017-10-07T01:53:05.396Z,2.43
2017-10-07T01:55:33.210Z,2.50
2017-10-07T01:58:01.006Z,3.20
2017-10-07T02:00:29.169Z,2.83
2017-10-07T02:02:56.881Z,2.93
2017-10-07T02:05:24.679Z,3.80
2017-10-07T02:07:53.257Z,3.20
2017-10-07T02:10:20.999Z,3.80
2017-10-07T02:12:48.797Z,3.23
2017-10-07T02:15:16.747Z,4.23
2017-10-07T02:17:44.470Z,3.50
2017-10-07T02:20:12.175Z,4.50
2017-10-07T02:22:40.022Z,4.40
2017-10-07T02:25:07.770Z,5.03
2017-10-07T02:27:35.478Z,4.50
2017-10-07T02:30:03.231Z,4.63
2017-10-07T02:32:31.035Z,4.13
2017-10-07T02:34:59.607Z,3.77
2017-10-07T02:37:27.444Z,3.20
2017-10-07T02:39:55.191Z,3.80
2017-10-07T02:42:22.939Z,4.47
2017-10-07T02:44:50.744Z,3.93
2017-10-07T02:47:18.574Z,4.80
2017-10-07T02:49:46.370Z,3.97
2017-10-07T02:52:14.189Z,4.03
2017-10-07T02:54:41.970Z,5.00
2017-10-07T02:57:09.687Z,3.97
2017-10-07T02:59:37.471Z,3.83
2017-10-07T03:02:05.179Z,4.20
2017-10-07T03:04:32.963Z,4.27
2017-10-07T03:07:00.816Z,4.33
2017-10-07T03:09:28.539Z,4.63
2017-10-07T03:11:56.342Z,4.20
2017-10-07T03:14:24.247Z,5.60
2017-10-07T03:16:51.957Z,5.17
2017-10-07T03:19:19.671Z,5.47
2017-10-07T03:21:47.464Z,6.17
2017-10-07T03:24:15.232Z,4.97
2017-10-07T03:26:42.953Z,4.70
2017-10-07T03:29:10.699Z,4.80
2017-10-07T03:31:38.425Z,4.70
2017-10-07T03:34:06.173Z,4.27
2017-10-07T03:36:33.913Z,5.13
2017-10-07T03:39:01.700Z,4.97
2017-10-07T03:41:29.526Z,4.70
2017-10-07T03:43:58.202Z,4.97
2017-10-07T03:46:25.963Z,5.87
2017-10-07T03:48:53.738Z,4.27
2017-10-07T03:51:21.583Z,3.90
2017-10-07T03:53:49.399Z,3.60
2017-10-07T03:56:17.131Z,3.60
2017-10-07T03:58:44.855Z,4.13
2017-10-07T04:01:12.646Z,3.63
2017-10-07T04:03:40.393Z,3.37
2017-10-07T04:06:08.269Z,3.33
2017-10-07T04:08:36.055Z,3.97
2017-10-07T04:11:03.760Z,3.60
2017-10-07T04:13:31.479Z,2.63
2017-10-07T04:15:59.274Z,3.53
2017-10-07T04:18:26.988Z,3.30
2017-10-07T04:20:54.794Z,3.13
2017-10-07T04:23:22.506Z,3.63
2017-10-07T04:25:50.225Z,2.23
2017-10-07T04:28:18.091Z,2.87
2017-10-07T04:30:45.891Z,2.77
2017-10-07T04:33:13.672Z,2.43
2017-10-07T04:35:41.387Z,2.60
2017-10-07T04:38:09.111Z,2.70
2017-10-07T04:40:36.833Z,2.23
2017-10-07T04:43:04.719Z,2.33
2017-10-07T04:45:32.451Z,2.00
2017-10-07T04:48:00.178Z,1.93
2017-10-07T04:50:27.964Z,2.70
2017-10-07T04:52:55.762Z,1.93
2017-10-07T04:55:24.274Z,2.00
2017-10-07T04:57:55.254Z,2.30
2017-10-07T05:00:23.015Z,2.40
2017-10-07T05:02:50.838Z,2.07
2017-10-07T05:05:18.692Z,2.73
2017-10-07T05:07:46.487Z,1.90
2017-10-07T05:10:15.110Z,2.03
2017-10-07T05:12:42.860Z,1.90
2017-10-07T05:15:10.666Z,1.97
2017-10-07T05:17:38.521Z,2.07
2017-10-07T05:20:06.313Z,2.03
2017-10-07T05:22:34.158Z,2.30
2017-10-07T05:25:01.944Z,1.70
2017-10-07T05:27:30.213Z,1.77
2017-10-07T05:29:58.044Z,2.00
2017-10-07T05:32:25.764Z,1.57
2017-10-07T05:34:53.499Z,1.73
2017-10-07T05:37:21.360Z,1.50
2017-10-07T05:39:49.095Z,2.03
2017-10-07T05:42:16.862Z,2.13
2017-10-07T05:44:44.640Z,1.73
2017-10-07T05:47:12.878Z,2.50
2017-10-07T05:49:40.747Z,1.80
2017-10-07T05:52:08.760Z,1.73
2017-10-07T05:54:36.498Z,1.50
2017-10-07T05:57:05.088Z,2.23
2017-10-07T05:59:33.033Z,1.97
2017-10-07T06:02:00.820Z,2.20
2017-10-07T06:04:28.575Z,2.27
2017-10-07T06:06:56.380Z,2.17
2017-10-07T06:09:24.184Z,2.33
2017-10-07T06:11:52.043Z,2.57
2017-10-07T06:14:21.068Z,1.90
2017-10-07T06:16:49.295Z,2.90
2017-10-07T06:19:17.094Z,2.13
2017-10-07T06:21:46.123Z,1.80
2017-10-07T06:24:13.866Z,1.90
2017-10-07T06:26:41.587Z,1.67
2017-10-07T06:29:09.399Z,1.97
2017-10-07T06:31:37.123Z,1.90
2017-10-07T06:34:04.900Z,1.93
2017-10-07T06:36:33.063Z,2.17
2017-10-07T06:39:01.518Z,2.70
2017-10-07T06:41:30.135Z,2.03
2017-10-07T06:43:58.076Z,1.90
2017-10-07T06:46:25.918Z,1.83
2017-10-07T06:48:53.792Z,2.03
2017-10-07T06:51:21.505Z,1.30
2017-10-07T06:53:49.239Z,1.40
2017-10-07T06:56:17.025Z,2.00
2017-10-07T06:58:44.763Z,1.43
2017-10-07T07:01:12.557Z,1.70
2017-10-07T07:03:40.315Z,1.60
2017-10-07T07:06:08.876Z,2.20
2017-10-07T07:08:40.328Z,1.67
2017-10-07T07:11:08.162Z,1.67
2017-10-07T07:13:36.467Z,1.80
2017-10-07T07:16:04.256Z,2.00
2017-10-07T07:18:32.055Z,1.87
2017-10-07T07:20:59.885Z,1.80
2017-10-07T07:23:27.685Z,1.67
2017-10-07T07:25:55.448Z,1.80
2017-10-07T07:28:23.323Z,1.57
2017-10-07T07:30:51.044Z,1.80
2017-10-07T07:33:18.824Z,1.17
2017-10-07T07:35:46.624Z,1.60
2017-10-07T07:38:14.348Z,1.60
2017-10-07T07:40:42.088Z,1.80
2017-10-07T07:43:09.964Z,1.60
2017-10-07T07:45:37.753Z,1.53
2017-10-07T07:48:05.515Z,2.27
2017-10-07T07:50:33.264Z,1.93
2017-10-07T07:53:01.090Z,1.83
2017-10-07T07:55:28.973Z,1.53
2017-10-07T07:57:56.740Z,1.63
2017-10-07T08:00:24.509Z,1.50
2017-10-07T08:02:52.326Z,1.70
2017-10-07T08:05:20.186Z,1.93
2017-10-07T08:07:47.964Z,1.80
2017-10-07T08:10:15.750Z,2.10
2017-10-07T08:12:43.484Z,2.20
2017-10-07T08:15:11.272Z,2.40
2017-10-07T08:17:39.058Z,2.17
2017-10-07T08:20:06.850Z,2.27
2017-10-07T08:22:34.583Z,3.20
2017-10-07T08:25:02.379Z,3.00
2017-10-07T08:27:30.166Z,2.67
2017-10-07T08:29:57.948Z,2.93
2017-10-07T08:32:25.693Z,4.13
2017-10-07T08:34:53.416Z,3.30
2017-10-07T08:37:21.132Z,3.03
2017-10-07T08:39:48.980Z,3.50
2017-10-07T08:42:16.793Z,2.73
2017-10-07T08:44:44.534Z,3.17
2017-10-07T08:47:12.346Z,3.50
2017-10-07T08:49:41.020Z,3.30
2017-10-07T08:52:08.804Z,3.70
2017-10-07T08:54:36.601Z,3.77
2017-10-07T08:57:04.485Z,3.50
2017-10-07T08:59:32.230Z,4.17
2017-10-07T09:02:00.023Z,3.50
2017-10-07T09:04:27.896Z,2.83
2017-10-07T09:06:55.688Z,3.47
2017-10-07T09:09:23.489Z,4.67
2017-10-07T09:11:51.337Z,3.20
2017-10-07T09:14:19.849Z,4.80
2017-10-07T09:16:52.593Z,3.90
2017-10-07T09:19:20.327Z,3.50
2017-10-07T09:21:48.122Z,3.93
2017-10-07T09:24:15.870Z,3.67
2017-10-07T09:26:43.584Z,3.80
2017-10-07T09:29:11.451Z,2.50
2017-10-07T09:31:39.935Z,2.40
2017-10-07T09:34:07.732Z,2.50
2017-10-07T09:36:35.652Z,2.67
2017-10-07T09:39:03.550Z,3.07
2017-10-07T09:41:31.405Z,2.40
2017-10-07T09:43:59.161Z,2.30
2017-10-07T09:46:26.909Z,1.77
2017-10-07T09:48:54.775Z,1.90
2017-10-07T09:51:22.610Z,1.67
2017-10-07T09:53:50.458Z,1.60
2017-10-07T09:56:18.241Z,1.77
2017-10-07T09:58:46.056Z,1.97
2017-10-07T10:01:15.566Z,2.13
2017-10-07T10:03:43.468Z,2.00
2017-10-07T10:06:11.271Z,2.57
2017-10-07T10:08:39.050Z,3.27
2017-10-07T10:11:06.876Z,2.10
2017-10-07T10:13:34.653Z,1.93
2017-10-07T10:16:02.738Z,1.97
2017-10-07T10:18:30.549Z,2.10
2017-10-07T10:20:58.280Z,1.90
2017-10-07T10:23:26.050Z,1.67
2017-10-07T10:25:53.849Z,2.43
2017-10-07T10:28:21.605Z,1.80
2017-10-07T10:30:49.385Z,1.53
2017-10-07T10:33:17.178Z,1.60
2017-10-07T10:35:44.956Z,1.70
2017-10-07T10:38:13.272Z,3.10
2017-10-07T10:40:41.015Z,1.30
2017-10-07T10:43:08.784Z,1.00
2017-10-07T10:45:36.586Z,1.30
2017-10-07T10:48:04.386Z,1.10
2017-10-07T10:50:32.201Z,1.10
2017-10-07T10:52:59.954Z,1.40
2017-10-07T10:55:27.831Z,0.63
2017-10-07T10:57:58.766Z,0.70
2017-10-07T11:00:28.022Z,0.97
2017-10-07T11:02:55.821Z,1.30
2017-10-07T11:05:23.636Z,1.30
2017-10-07T11:07:51.569Z,1.70
2017-10-07T11:10:19.310Z,2.10
2017-10-07T11:12:47.103Z,1.80
2017-10-07T11:15:14.860Z,1.20
2017-10-07T11:17:42.965Z,1.60
2017-10-07T11:20:10.743Z,1.87
2017-10-07T11:22:38.571Z,1.93
2017-10-07T11:25:06.305Z,1.90
2017-10-07T11:27:34.041Z,1.43
2017-10-07T11:30:02.023Z,1.47
2017-10-07T11:32:30.222Z,1.77
2017-10-07T11:34:58.042Z,1.80
2017-10-07T11:37:25.867Z,1.70
2017-10-07T11:39:53.644Z,1.60
2017-10-07T11:42:21.360Z,1.97
2017-10-07T11:44:50.656Z,1.77
2017-10-07T11:47:18.490Z,1.63
2017-10-07T11:49:47.207Z,1.70
2017-10-07T11:52:22.229Z,1.90
2017-10-07T11:54:50.018Z,1.90
2017-10-07T11:57:18.152Z,1.63
2017-10-07T11:59:45.981Z,1.90
2017-10-07T12:02:13.780Z,2.10
2017-10-07T12:04:41.663Z,2.10
2017-10-07T12:07:09.411Z,1.80
2017-10-07T12:09:37.241Z,1.90
2017-10-07T12:12:05.049Z,1.70
2017-10-07T12:14:33.519Z,1.80
2017-10-07T12:17:01.303Z,1.60
2017-10-07T12:19:29.088Z,1.27
2017-10-07T12:21:56.852Z,2.20
2017-10-07T12:24:24.606Z,1.70
2017-10-07T12:26:52.378Z,1.53
2017-10-07T12:29:20.088Z,1.60
2017-10-07T12:31:47.969Z,1.00
2017-10-07T12:34:15.801Z,1.33
2017-10-07T12:36:43.638Z,0.90
2017-10-07T12:39:11.515Z,2.50
2017-10-07T12:41:39.237Z,1.40
2017-10-07T12:44:07.027Z,0.90
2017-10-07T12:46:34.828Z,1.00
2017-10-07T12:49:02.608Z,1.33
2017-10-07T12:51:30.425Z,1.00
2017-10-07T12:53:58.238Z,1.30
2017-10-07T12:56:27.081Z,1.20
2017-10-07T12:58:55.548Z,1.17
2017-10-07T13:01:23.436Z,1.40
2017-10-07T13:03:51.945Z,1.03
2017-10-07T13:06:20.339Z,1.13
2017-10-07T13:08:48.050Z,1.00
2017-10-07T13:11:15.811Z,1.43
2017-10-07T13:13:43.613Z,1.27
2017-10-07T13:16:11.448Z,1.03
2017-10-07T13:18:42.234Z,2.20
2017-10-07T13:21:10.149Z,1.10
2017-10-07T13:23:37.936Z,0.80
2017-10-07T13:26:05.701Z,0.60
2017-10-07T13:28:33.493Z,0.80
2017-10-07T13:31:02.054Z,1.00
2017-10-07T13:33:29.881Z,1.00
2017-10-07T13:35:57.595Z,1.20
2017-10-07T13:38:25.319Z,0.83
2017-10-07T13:40:53.045Z,0.93
2017-10-07T13:43:20.767Z,1.20
2017-10-07T13:45:48.714Z,0.73
2017-10-07T13:48:16.425Z,4.17
2017-10-07T13:50:44.159Z,1.00
2017-10-07T13:53:11.880Z,0.70
2017-10-07T13:55:39.609Z,0.90
2017-10-07T13:58:07.408Z,0.87
2017-10-07T14:00:35.911Z,1.47
2017-10-07T14:03:03.678Z,0.63
2017-10-07T14:05:31.474Z,1.30
2017-10-07T14:07:59.289Z,0.93
2017-10-07T14:10:27.038Z,0.73
2017-10-07T14:12:54.864Z,0.60
2017-10-07T14:15:22.627Z,1.00
2017-10-07T14:17:50.340Z,0.70
2017-10-07T14:20:18.046Z,0.70
2017-10-07T14:22:45.894Z,1.00
2017-10-07T14:25:15.307Z,0.73
2017-10-07T14:27:43.166Z,1.40
2017-10-07T14:30:10.966Z,1.27
2017-10-07T14:32:38.731Z,1.30
2017-10-07T14:35:06.455Z,1.73
2017-10-07T14:37:34.183Z,1.07
2017-10-07T14:40:01.985Z,1.03
2017-10-07T14:42:29.797Z,1.20
2017-10-07T14:44:57.522Z,1.50
2017-10-07T14:47:25.234Z,1.30
2017-10-07T14:49:52.967Z,1.07
2017-10-07T14:52:20.728Z,1.03
2017-10-07T14:54:48.509Z,2.00
2017-10-07T14:57:16.317Z,1.33
2017-10-07T14:59:44.089Z,1.10
2017-10-07T15:02:11.856Z,1.00
2017-10-07T15:04:39.591Z,0.83
2017-10-07T15:07:07.411Z,0.97
2017-10-07T15:09:35.221Z,1.10
2017-10-07T15:12:02.969Z,0.97
2017-10-07T15:14:30.791Z,1.10
2017-10-07T15:16:58.591Z,0.90
2017-10-07T15:19:27.178Z,1.47
2017-10-07T15:21:54.989Z,2.20
2017-10-07T15:24:22.808Z,1.97
2017-10-07T15:26:50.593Z,1.03
2017-10-07T15:29:19.161Z,1.13
2017-10-07T15:31:47.070Z,0.90
2017-10-07T15:34:14.776Z,1.00
2017-10-07T15:36:42.505Z,1.10
2017-10-07T15:39:10.218Z,1.20
2017-10-07T15:41:38.018Z,1.10
2017-10-07T15:44:05.795Z,1.03
2017-10-07T15:46:33.515Z,0.90
2017-10-07T15:49:01.240Z,0.90
2017-10-07T15:51:28.998Z,1.00
2017-10-07T15:53:56.745Z,0.90
2017-10-07T15:56:24.559Z,1.00
2017-10-07T15:58:52.266Z,1.27
2017-10-07T16:01:20.039Z,1.20
2017-10-07T16:03:47.851Z,0.97
2017-10-07T16:06:15.559Z,1.10
2017-10-07T16:08:43.289Z,1.67
2017-10-07T16:11:11.067Z,1.33
2017-10-07T16:13:38.802Z,2.43
2017-10-07T16:16:06.572Z,2.10
2017-10-07T16:18:34.375Z,2.37
2017-10-07T16:21:02.167Z,1.00
2017-10-07T16:23:33.275Z,1.00
2017-10-07T16:26:01.139Z,1.23
2017-10-07T16:28:28.958Z,1.40
2017-10-07T16:30:56.694Z,1.50
2017-10-07T16:33:24.524Z,1.80
2017-10-07T16:35:52.242Z,1.20
2017-10-07T16:38:20.066Z,1.30
2017-10-07T16:40:47.852Z,1.53
2017-10-07T16:43:15.657Z,2.00
2017-10-07T16:45:44.240Z,2.70
2017-10-07T16:48:12.023Z,3.50
2017-10-07T16:50:39.752Z,2.57
2017-10-07T16:53:07.564Z,1.70
2017-10-07T16:55:35.349Z,1.77
2017-10-07T16:58:03.061Z,2.20
2017-10-07T17:00:30.847Z,2.43
2017-10-07T17:02:58.780Z,1.50
2017-10-07T17:05:26.534Z,2.07
2017-10-07T17:07:54.286Z,2.47
2017-10-07T17:10:22.065Z,1.97
2017-10-07T17:12:49.795Z,2.07
2017-10-07T17:15:17.701Z,1.80
2017-10-07T17:17:45.472Z,1.67
2017-10-07T17:20:13.242Z,2.00
2017-10-07T17:22:41.118Z,2.40
2017-10-07T17:25:08.932Z,2.00
2017-10-07T17:27:37.662Z,2.17
2017-10-07T17:30:05.430Z,3.20
2017-10-07T17:32:33.134Z,1.90
2017-10-07T17:35:01.662Z,2.33
2017-10-07T17:37:29.431Z,2.00
2017-10-07T17:39:57.148Z,2.50
2017-10-07T17:42:24.928Z,3.27
2017-10-07T17:44:52.704Z,1.90
2017-10-07T17:47:20.423Z,2.20
2017-10-07T17:49:48.203Z,2.67
2017-10-07T17:52:16.082Z,2.33
2017-10-07T17:54:43.840Z,4.17
2017-10-07T17:57:11.608Z,6.93
2017-10-07T17:59:39.427Z,2.70
2017-10-07T18:02:07.153Z,2.63
2017-10-07T18:04:34.883Z,2.50
2017-10-07T18:07:02.686Z,3.00
2017-10-07T18:09:30.465Z,3.13
2017-10-07T18:11:58.242Z,2.90
2017-10-07T18:14:26.079Z,2.77
2017-10-07T18:16:54.584Z,2.60
2017-10-07T18:19:23.237Z,2.67
2017-10-07T18:21:50.959Z,3.40
2017-10-07T18:24:18.682Z,3.23
2017-10-07T18:26:47.172Z,4.10
2017-10-07T18:29:14.960Z,2.93
2017-10-07T18:31:42.741Z,2.40
2017-10-07T18:34:10.618Z,3.23
2017-10-07T18:36:38.339Z,3.40
2017-10-07T18:39:06.059Z,3.07
2017-10-07T18:41:34.238Z,3.40
2017-10-07T18:44:01.950Z,3.40
2017-10-07T18:46:29.735Z,2.93
2017-10-07T18:48:57.577Z,2.80
2017-10-07T18:51:26.070Z,3.17
2017-10-07T18:53:53.840Z,4.17
2017-10-07T18:56:21.702Z,3.63
2017-10-07T18:58:49.455Z,3.80
2017-10-07T19:01:17.283Z,4.97
2017-10-07T19:03:45.149Z,6.40
2017-10-07T19:06:12.863Z,4.27
2017-10-07T19:08:40.578Z,3.83
2017-10-07T19:11:08.343Z,4.47
2017-10-07T19:13:36.073Z,3.83
2017-10-07T19:16:03.869Z,4.03
2017-10-07T19:18:31.662Z,3.40
2017-10-07T19:20:59.440Z,3.43
2017-10-07T19:23:27.188Z,3.43
2017-10-07T19:25:54.927Z,3.77
2017-10-07T19:28:22.694Z,3.80
2017-10-07T19:30:50.472Z,4.13
2017-10-07T19:33:18.326Z,3.50
2017-10-07T19:35:46.057Z,3.90
2017-10-07T19:38:13.796Z,3.83
2017-10-07T19:40:41.639Z,4.27
2017-10-07T19:43:09.427Z,3.27
2017-10-07T19:45:37.169Z,3.60
2017-10-07T19:48:04.897Z,3.63
2017-10-07T19:50:34.230Z,3.50
2017-10-07T19:53:03.546Z,3.70
2017-10-07T19:55:31.280Z,3.60
2017-10-07T19:57:59.852Z,4.33
2017-10-07T20:00:27.561Z,2.93
2017-10-07T20:02:55.349Z,4.50
2017-10-07T20:05:23.095Z,3.57
2017-10-07T20:07:50.877Z,3.40
2017-10-07T20:10:18.592Z,3.43
2017-10-07T20:12:47.280Z,3.80
2017-10-07T20:15:15.071Z,3.83
2017-10-07T20:17:42.878Z,4.20
2017-10-07T20:20:11.530Z,3.40
2017-10-07T20:22:39.523Z,3.30
2017-10-07T20:25:07.347Z,3.07
2017-10-07T20:27:35.938Z,3.50
2017-10-07T20:30:04.758Z,2.83
2017-10-07T20:32:33.392Z,3.00
2017-10-07T20:35:01.221Z,2.63
2017-10-07T20:37:29.045Z,2.73
2017-10-07T20:39:56.829Z,2.73
2017-10-07T20:42:25.117Z,2.40
2017-10-07T20:44:53.715Z,2.30
2017-10-07T20:47:23.000Z,2.10
2017-10-07T20:49:53.265Z,2.20
2017-10-07T20:52:22.828Z,2.10
2017-10-07T20:54:51.893Z,2.10
2017-10-07T20:57:20.310Z,1.83
2017-10-07T20:59:51.624Z,1.93
2017-10-07T21:02:20.263Z,1.80
2017-10-07T21:04:48.480Z,2.00
2017-10-07T21:07:16.297Z,1.70
2017-10-07T21:09:44.043Z,1.53
2017-10-07T21:12:11.835Z,2.10
2017-10-07T21:14:39.982Z,2.83
2017-10-07T21:17:08.579Z,1.90
2017-10-07T21:19:37.493Z,1.90
2017-10-07T21:22:06.642Z,1.87
2017-10-07T21:24:34.594Z,2.00
2017-10-07T21:27:02.367Z,2.10
2017-10-07T21:29:30.195Z,1.70
2017-10-07T21:31:59.970Z,1.60
2017-10-07T21:34:28.499Z,2.13
2017-10-07T21:36:56.518Z,1.60
2017-10-07T21:39:24.267Z,1.83
2017-10-07T21:41:52.110Z,1.60
2017-10-07T21:44:20.123Z,1.53
2017-10-07T21:46:47.904Z,1.67
2017-10-07T21:49:15.833Z,1.70
2017-10-07T21:51:43.720Z,2.13
2017-10-07T21:54:11.635Z,1.30
2017-10-07T21:56:39.429Z,1.50
2017-10-07T21:59:07.190Z,1.60
2017-10-07T22:01:34.981Z,1.73
2017-10-07T22:04:03.131Z,1.20
2017-10-07T22:06:30.920Z,1.17
2017-10-07T22:08:58.657Z,1.57
2017-10-07T22:11:26.453Z,1.20
2017-10-07T22:13:54.295Z,1.40
2017-10-07T22:16:22.071Z,1.00
2017-10-07T22:18:49.875Z,1.10
2017-10-07T22:21:17.615Z,1.23
2017-10-07T22:23:45.358Z,1.50
2017-10-07T22:26:13.161Z,1.10
2017-10-07T22:28:40.959Z,1.40
2017-10-07T22:31:08.728Z,1.27
2017-10-07T22:33:36.441Z,1.60
2017-10-07T22:36:04.247Z,1.60
2017-10-07T22:38:31.963Z,1.10
2017-10-07T22:40:59.760Z,1.20
2017-10-07T22:43:27.514Z,1.20
2017-10-07T22:45:55.224Z,1.40
2017-10-07T22:48:23.037Z,1.30
2017-10-07T22:50:50.779Z,1.10
2017-10-07T22:53:18.500Z,1.57
2017-10-07T22:55:46.290Z,1.07
2017-10-07T22:58:14.124Z,1.30
2017-10-07T23:00:41.845Z,1.37
2017-10-07T23:03:09.565Z,1.10
2017-10-07T23:05:37.376Z,0.97
2017-10-07T23:08:05.868Z,1.10
2017-10-07T23:10:33.584Z,1.10
2017-10-07T23:13:01.375Z,0.83
2017-10-07T23:15:29.280Z,1.30
2017-10-07T23:17:56.999Z,1.17
2017-10-07T23:20:24.789Z,1.03
2017-10-07T23:22:53.368Z,0.93
2017-10-07T23:25:21.153Z,1.87
2017-10-07T23:27:48.874Z,1.10
2017-10-07T23:30:17.411Z,1.13
2017-10-07T23:32:45.195Z,1.20
2017-10-07T23:35:12.913Z,1.13
2017-10-07T23:37:40.706Z,1.20
2017-10-07T23:40:09.279Z,0.97
2017-10-07T23:42:37.069Z,1.13
2017-10-07T23:45:04.863Z,1.37
2017-10-07T23:47:32.640Z,1.20
2017-10-07T23:50:09.172Z,1.57
2017-10-07T23:52:36.958Z,1.00
2017-10-07T23:55:04.736Z,1.10
2017-10-07T23:57:32.523Z,1.03
